sensor_id;sensor_type;location;lat;lon;timestamp;temperature;humidity
73322;DHT22;61549;37.044;22.128;2023-03-23T00:00:06;17.40;54.80
73322;DHT22;61549;37.044;22.128;2023-03-23T00:02:34;17.30;55.70
73322;DHT22;61549;37.044;22.128;2023-03-23T00:05:07;17.40;55.70
73322;DHT22;61549;37.044;22.128;2023-03-23T00:07:34;17.40;55.90
73322;DHT22;61549;37.044;22.128;2023-03-23T00:10:00;17.40;55.80
73322;DHT22;61549;37.044;22.128;2023-03-23T00:12:30;17.50;55.70
73322;DHT22;61549;37.044;22.128;2023-03-23T00:15:02;17.50;55.60
73322;DHT22;61549;37.044;22.128;2023-03-23T00:17:29;17.40;55.30
73322;DHT22;61549;37.044;22.128;2023-03-23T00:20:14;17.30;55.40
73322;DHT22;61549;37.044;22.128;2023-03-23T00:22:39;17.30;55.30
73322;DHT22;61549;37.044;22.128;2023-03-23T00:25:06;17.20;55.30
73322;DHT22;61549;37.044;22.128;2023-03-23T00:27:33;17.10;55.40
73322;DHT22;61549;37.044;22.128;2023-03-23T00:29:59;17.10;55.60
73322;DHT22;61549;37.044;22.128;2023-03-23T00:32:26;17.00;55.20
73322;DHT22;61549;37.044;22.128;2023-03-23T00:34:56;16.90;55.10
73322;DHT22;61549;37.044;22.128;2023-03-23T00:37:25;16.80;55.00
73322;DHT22;61549;37.044;22.128;2023-03-23T00:39:50;16.90;54.80
73322;DHT22;61549;37.044;22.128;2023-03-23T00:42:17;16.80;54.80
73322;DHT22;61549;37.044;22.128;2023-03-23T00:44:43;16.80;54.60
73322;DHT22;61549;37.044;22.128;2023-03-23T00:47:10;16.80;54.40
73322;DHT22;61549;37.044;22.128;2023-03-23T00:49:37;16.70;55.10
73322;DHT22;61549;37.044;22.128;2023-03-23T00:52:23;16.70;55.20
73322;DHT22;61549;37.044;22.128;2023-03-23T00:54:49;16.70;54.70
73322;DHT22;61549;37.044;22.128;2023-03-23T00:57:15;16.70;54.80
73322;DHT22;61549;37.044;22.128;2023-03-23T00:59:42;16.60;54.90
73322;DHT22;61549;37.044;22.128;2023-03-23T01:02:08;16.50;54.90
73322;DHT22;61549;37.044;22.128;2023-03-23T01:04:34;16.40;55.00
73322;DHT22;61549;37.044;22.128;2023-03-23T01:07:02;16.40;55.10
73322;DHT22;61549;37.044;22.128;2023-03-23T01:09:28;16.30;55.20
73322;DHT22;61549;37.044;22.128;2023-03-23T01:11:54;16.20;55.20
73322;DHT22;61549;37.044;22.128;2023-03-23T01:14:26;16.30;55.40
73322;DHT22;61549;37.044;22.128;2023-03-23T01:16:52;16.30;55.40
73322;DHT22;61549;37.044;22.128;2023-03-23T01:19:18;16.20;55.70
73322;DHT22;61549;37.044;22.128;2023-03-23T01:21:44;16.10;55.90
73322;DHT22;61549;37.044;22.128;2023-03-23T01:24:10;16.10;55.80
73322;DHT22;61549;37.044;22.128;2023-03-23T01:26:36;16.00;55.60
73322;DHT22;61549;37.044;22.128;2023-03-23T01:29:04;15.90;55.50
73322;DHT22;61549;37.044;22.128;2023-03-23T01:31:30;15.90;56.00
73322;DHT22;61549;37.044;22.128;2023-03-23T01:33:55;15.80;55.60
73322;DHT22;61549;37.044;22.128;2023-03-23T01:36:25;15.90;55.00
73322;DHT22;61549;37.044;22.128;2023-03-23T01:38:52;15.90;54.50
73322;DHT22;61549;37.044;22.128;2023-03-23T01:41:19;16.00;54.50
73322;DHT22;61549;37.044;22.128;2023-03-23T01:46:32;16.00;54.50
73322;DHT22;61549;37.044;22.128;2023-03-23T01:49:05;16.00;54.50
73322;DHT22;61549;37.044;22.128;2023-03-23T01:51:37;15.90;54.30
73322;DHT22;61549;37.044;22.128;2023-03-23T01:54:08;15.80;54.30
73322;DHT22;61549;37.044;22.128;2023-03-23T01:56:48;15.90;54.30
73322;DHT22;61549;37.044;22.128;2023-03-23T01:59:30;15.90;54.30
73322;DHT22;61549;37.044;22.128;2023-03-23T02:01:57;16.00;54.00
73322;DHT22;61549;37.044;22.128;2023-03-23T02:04:26;16.00;54.20
73322;DHT22;61549;37.044;22.128;2023-03-23T02:06:53;16.00;54.10
73322;DHT22;61549;37.044;22.128;2023-03-23T02:09:20;16.00;53.90
73322;DHT22;61549;37.044;22.128;2023-03-23T02:11:47;15.90;54.00
73322;DHT22;61549;37.044;22.128;2023-03-23T02:14:15;15.90;53.90
73322;DHT22;61549;37.044;22.128;2023-03-23T02:36:54;15.80;51.90
73322;DHT22;61549;37.044;22.128;2023-03-23T02:39:24;15.80;52.70
73322;DHT22;61549;37.044;22.128;2023-03-23T02:41:56;15.70;51.80
73322;DHT22;61549;37.044;22.128;2023-03-23T02:44:24;15.70;52.20
73322;DHT22;61549;37.044;22.128;2023-03-23T02:46:57;15.70;52.80
73322;DHT22;61549;37.044;22.128;2023-03-23T02:49:25;15.60;52.80
73322;DHT22;61549;37.044;22.128;2023-03-23T02:51:54;15.60;53.30
73322;DHT22;61549;37.044;22.128;2023-03-23T02:54:21;15.50;53.30
73322;DHT22;61549;37.044;22.128;2023-03-23T02:56:50;15.50;52.90
73322;DHT22;61549;37.044;22.128;2023-03-23T02:59:17;15.40;52.90
73322;DHT22;61549;37.044;22.128;2023-03-23T03:04:24;15.40;52.50
73322;DHT22;61549;37.044;22.128;2023-03-23T03:07:04;15.40;53.00
73322;DHT22;61549;37.044;22.128;2023-03-23T03:10:09;15.30;52.40
73322;DHT22;61549;37.044;22.128;2023-03-23T03:18:33;15.30;52.20
73322;DHT22;61549;37.044;22.128;2023-03-23T03:21:07;15.30;51.90
73322;DHT22;61549;37.044;22.128;2023-03-23T03:26:15;15.40;51.70
73322;DHT22;61549;37.044;22.128;2023-03-23T03:28:44;15.40;51.80
73322;DHT22;61549;37.044;22.128;2023-03-23T03:31:16;15.50;51.60
73322;DHT22;61549;37.044;22.128;2023-03-23T03:33:43;15.50;50.90
73322;DHT22;61549;37.044;22.128;2023-03-23T03:36:15;15.60;51.00
73322;DHT22;61549;37.044;22.128;2023-03-23T03:38:43;15.50;51.60
73322;DHT22;61549;37.044;22.128;2023-03-23T03:41:09;15.60;51.00
73322;DHT22;61549;37.044;22.128;2023-03-23T03:43:35;15.60;50.90
73322;DHT22;61549;37.044;22.128;2023-03-23T03:46:01;15.60;51.10
73322;DHT22;61549;37.044;22.128;2023-03-23T03:48:27;15.50;50.90
73322;DHT22;61549;37.044;22.128;2023-03-23T03:50:53;15.60;51.50
73322;DHT22;61549;37.044;22.128;2023-03-23T03:53:25;15.60;51.70
73322;DHT22;61549;37.044;22.128;2023-03-23T03:55:51;15.60;51.40
73322;DHT22;61549;37.044;22.128;2023-03-23T03:58:21;15.60;51.30
73322;DHT22;61549;37.044;22.128;2023-03-23T04:00:48;15.50;51.20
73322;DHT22;61549;37.044;22.128;2023-03-23T04:03:14;15.50;51.20
73322;DHT22;61549;37.044;22.128;2023-03-23T04:05:42;15.50;51.40
73322;DHT22;61549;37.044;22.128;2023-03-23T04:08:10;15.40;51.60
73322;DHT22;61549;37.044;22.128;2023-03-23T04:10:37;15.40;51.70
73322;DHT22;61549;37.044;22.128;2023-03-23T04:13:07;15.40;51.80
73322;DHT22;61549;37.044;22.128;2023-03-23T04:15:33;15.40;51.70
73322;DHT22;61549;37.044;22.128;2023-03-23T04:18:10;15.50;52.20
73322;DHT22;61549;37.044;22.128;2023-03-23T04:20:52;15.40;51.90
73322;DHT22;61549;37.044;22.128;2023-03-23T04:23:20;15.40;52.20
73322;DHT22;61549;37.044;22.128;2023-03-23T04:25:47;15.30;52.20
73322;DHT22;61549;37.044;22.128;2023-03-23T04:28:20;15.20;52.10
73322;DHT22;61549;37.044;22.128;2023-03-23T04:30:50;15.10;52.20
73322;DHT22;61549;37.044;22.128;2023-03-23T04:33:23;15.10;52.50
73322;DHT22;61549;37.044;22.128;2023-03-23T04:35:54;15.10;52.50
73322;DHT22;61549;37.044;22.128;2023-03-23T04:38:21;15.10;52.50
73322;DHT22;61549;37.044;22.128;2023-03-23T04:40:50;15.10;52.30
73322;DHT22;61549;37.044;22.128;2023-03-23T04:43:21;14.80;52.60
73322;DHT22;61549;37.044;22.128;2023-03-23T04:45:58;14.80;52.80
73322;DHT22;61549;37.044;22.128;2023-03-23T04:48:28;14.80;52.60
73322;DHT22;61549;37.044;22.128;2023-03-23T04:50:54;14.90;52.60
73322;DHT22;61549;37.044;22.128;2023-03-23T04:53:20;15.00;52.60
73322;DHT22;61549;37.044;22.128;2023-03-23T04:55:47;15.00;52.60
73322;DHT22;61549;37.044;22.128;2023-03-23T04:58:15;15.10;52.80
73322;DHT22;61549;37.044;22.128;2023-03-23T05:00:41;15.10;52.80
73322;DHT22;61549;37.044;22.128;2023-03-23T05:03:10;15.10;53.00
73322;DHT22;61549;37.044;22.128;2023-03-23T05:05:36;15.20;53.00
73322;DHT22;61549;37.044;22.128;2023-03-23T05:08:03;15.20;53.00
73322;DHT22;61549;37.044;22.128;2023-03-23T05:10:29;15.20;52.90
73322;DHT22;61549;37.044;22.128;2023-03-23T05:12:54;15.30;53.00
73322;DHT22;61549;37.044;22.128;2023-03-23T05:15:20;15.30;53.10
73322;DHT22;61549;37.044;22.128;2023-03-23T05:17:46;15.30;53.30
73322;DHT22;61549;37.044;22.128;2023-03-23T05:20:15;15.40;53.20
73322;DHT22;61549;37.044;22.128;2023-03-23T05:22:46;15.50;53.10
73322;DHT22;61549;37.044;22.128;2023-03-23T05:25:15;15.60;52.80
73322;DHT22;61549;37.044;22.128;2023-03-23T05:27:47;15.70;52.90
73322;DHT22;61549;37.044;22.128;2023-03-23T05:30:19;15.80;52.90
73322;DHT22;61549;37.044;22.128;2023-03-23T05:32:46;15.90;53.80
73322;DHT22;61549;37.044;22.128;2023-03-23T05:35:17;16.00;54.70
73322;DHT22;61549;37.044;22.128;2023-03-23T05:37:43;16.10;54.60
73322;DHT22;61549;37.044;22.128;2023-03-23T05:40:11;16.10;54.70
73322;DHT22;61549;37.044;22.128;2023-03-23T05:42:44;16.20;55.60
73322;DHT22;61549;37.044;22.128;2023-03-23T05:45:11;16.30;54.80
73322;DHT22;61549;37.044;22.128;2023-03-23T05:47:38;16.30;53.60
73322;DHT22;61549;37.044;22.128;2023-03-23T05:50:07;16.50;53.10
73322;DHT22;61549;37.044;22.128;2023-03-23T05:52:52;16.60;52.70
73322;DHT22;61549;37.044;22.128;2023-03-23T05:55:33;16.70;51.70
73322;DHT22;61549;37.044;22.128;2023-03-23T05:58:00;16.90;51.40
73322;DHT22;61549;37.044;22.128;2023-03-23T06:00:26;17.00;51.50
73322;DHT22;61549;37.044;22.128;2023-03-23T06:02:55;17.10;52.10
73322;DHT22;61549;37.044;22.128;2023-03-23T06:05:22;17.30;51.30
73322;DHT22;61549;37.044;22.128;2023-03-23T06:07:49;17.40;50.50
73322;DHT22;61549;37.044;22.128;2023-03-23T06:10:25;17.60;49.60
73322;DHT22;61549;37.044;22.128;2023-03-23T06:12:52;17.80;48.20
73322;DHT22;61549;37.044;22.128;2023-03-23T06:15:18;18.00;48.10
73322;DHT22;61549;37.044;22.128;2023-03-23T06:17:44;18.10;48.30
73322;DHT22;61549;37.044;22.128;2023-03-23T06:20:11;18.30;48.50
73322;DHT22;61549;37.044;22.128;2023-03-23T06:22:37;18.40;48.10
73322;DHT22;61549;37.044;22.128;2023-03-23T06:25:10;18.50;48.00
73322;DHT22;61549;37.044;22.128;2023-03-23T06:27:40;18.80;46.50
73322;DHT22;61549;37.044;22.128;2023-03-23T06:30:07;18.90;45.10
73322;DHT22;61549;37.044;22.128;2023-03-23T06:32:33;19.10;45.20
73322;DHT22;61549;37.044;22.128;2023-03-23T06:34:59;19.30;44.30
73322;DHT22;61549;37.044;22.128;2023-03-23T06:37:25;19.40;44.20
73322;DHT22;61549;37.044;22.128;2023-03-23T06:39:51;19.50;44.00
73322;DHT22;61549;37.044;22.128;2023-03-23T06:42:17;19.70;43.90
73322;DHT22;61549;37.044;22.128;2023-03-23T06:44:43;19.80;44.50
73322;DHT22;61549;37.044;22.128;2023-03-23T06:47:09;19.90;43.60
73322;DHT22;61549;37.044;22.128;2023-03-23T06:49:35;20.10;43.80
73322;DHT22;61549;37.044;22.128;2023-03-23T06:52:01;20.20;43.80
73322;DHT22;61549;37.044;22.128;2023-03-23T06:54:29;20.30;44.00
73322;DHT22;61549;37.044;22.128;2023-03-23T06:56:55;20.30;43.60
73322;DHT22;61549;37.044;22.128;2023-03-23T06:59:21;20.50;43.10
73322;DHT22;61549;37.044;22.128;2023-03-23T07:01:47;20.60;43.40
73322;DHT22;61549;37.044;22.128;2023-03-23T07:04:14;20.70;43.10
73322;DHT22;61549;37.044;22.128;2023-03-23T07:06:40;20.70;43.80
73322;DHT22;61549;37.044;22.128;2023-03-23T07:09:05;20.70;43.80
73322;DHT22;61549;37.044;22.128;2023-03-23T07:11:32;20.80;44.00
73322;DHT22;61549;37.044;22.128;2023-03-23T07:13:59;20.90;43.90
73322;DHT22;61549;37.044;22.128;2023-03-23T07:16:25;21.00;44.30
73322;DHT22;61549;37.044;22.128;2023-03-23T07:18:54;21.20;44.30
73322;DHT22;61549;37.044;22.128;2023-03-23T07:21:20;21.10;44.40
73322;DHT22;61549;37.044;22.128;2023-03-23T07:23:46;21.00;44.50
73322;DHT22;61549;37.044;22.128;2023-03-23T07:26:12;21.00;45.30
73322;DHT22;61549;37.044;22.128;2023-03-23T07:28:39;21.00;44.80
73322;DHT22;61549;37.044;22.128;2023-03-23T07:31:06;21.10;44.60
73322;DHT22;61549;37.044;22.128;2023-03-23T07:33:34;21.30;44.80
73322;DHT22;61549;37.044;22.128;2023-03-23T07:36:02;21.30;44.50
73322;DHT22;61549;37.044;22.128;2023-03-23T07:38:33;21.20;45.00
73322;DHT22;61549;37.044;22.128;2023-03-23T07:40:59;21.30;45.00
73322;DHT22;61549;37.044;22.128;2023-03-23T07:43:25;21.30;44.90
73322;DHT22;61549;37.044;22.128;2023-03-23T07:45:51;21.50;44.30
73322;DHT22;61549;37.044;22.128;2023-03-23T07:48:17;21.50;44.10
73322;DHT22;61549;37.044;22.128;2023-03-23T07:50:44;21.60;43.90
73322;DHT22;61549;37.044;22.128;2023-03-23T07:53:09;21.70;44.60
73322;DHT22;61549;37.044;22.128;2023-03-23T07:55:36;21.80;44.30
73322;DHT22;61549;37.044;22.128;2023-03-23T07:58:02;21.80;43.10
73322;DHT22;61549;37.044;22.128;2023-03-23T08:00:28;21.90;43.00
73322;DHT22;61549;37.044;22.128;2023-03-23T08:02:56;22.00;42.80
73322;DHT22;61549;37.044;22.128;2023-03-23T08:05:23;22.10;43.10
73322;DHT22;61549;37.044;22.128;2023-03-23T08:07:53;22.30;43.40
73322;DHT22;61549;37.044;22.128;2023-03-23T08:10:21;22.20;43.80
73322;DHT22;61549;37.044;22.128;2023-03-23T08:12:55;22.30;43.00
73322;DHT22;61549;37.044;22.128;2023-03-23T08:15:25;22.10;43.00
73322;DHT22;61549;37.044;22.128;2023-03-23T08:17:57;22.00;43.70
73322;DHT22;61549;37.044;22.128;2023-03-23T08:20:23;22.00;43.80
73322;DHT22;61549;37.044;22.128;2023-03-23T08:22:53;22.10;44.10
73322;DHT22;61549;37.044;22.128;2023-03-23T08:25:20;22.10;43.90
73322;DHT22;61549;37.044;22.128;2023-03-23T08:27:47;22.10;43.60
73322;DHT22;61549;37.044;22.128;2023-03-23T08:30:17;22.10;43.70
73322;DHT22;61549;37.044;22.128;2023-03-23T08:32:44;22.10;43.80
73322;DHT22;61549;37.044;22.128;2023-03-23T08:35:11;22.20;42.90
73322;DHT22;61549;37.044;22.128;2023-03-23T08:37:38;22.20;42.30
73322;DHT22;61549;37.044;22.128;2023-03-23T08:40:07;22.30;43.00
73322;DHT22;61549;37.044;22.128;2023-03-23T08:42:39;22.10;43.40
73322;DHT22;61549;37.044;22.128;2023-03-23T08:45:07;22.10;42.60
73322;DHT22;61549;37.044;22.128;2023-03-23T08:47:34;22.20;43.40
73322;DHT22;61549;37.044;22.128;2023-03-23T08:50:06;22.30;44.40
73322;DHT22;61549;37.044;22.128;2023-03-23T08:52:32;22.20;42.40
73322;DHT22;61549;37.044;22.128;2023-03-23T08:54:58;22.30;43.30
73322;DHT22;61549;37.044;22.128;2023-03-23T08:57:25;22.10;46.10
73322;DHT22;61549;37.044;22.128;2023-03-23T08:59:51;22.00;45.90
73322;DHT22;61549;37.044;22.128;2023-03-23T09:02:20;21.90;45.90
73322;DHT22;61549;37.044;22.128;2023-03-23T09:04:46;21.80;44.20
73322;DHT22;61549;37.044;22.128;2023-03-23T09:07:12;21.90;43.30
73322;DHT22;61549;37.044;22.128;2023-03-23T09:09:41;22.10;43.30
73322;DHT22;61549;37.044;22.128;2023-03-23T09:12:09;22.10;43.40
73322;DHT22;61549;37.044;22.128;2023-03-23T09:14:54;22.00;41.60
73322;DHT22;61549;37.044;22.128;2023-03-23T09:17:20;22.00;41.70
73322;DHT22;61549;37.044;22.128;2023-03-23T09:19:45;21.70;43.00
73322;DHT22;61549;37.044;22.128;2023-03-23T09:22:11;21.80;44.40
73322;DHT22;61549;37.044;22.128;2023-03-23T09:24:37;21.90;42.70
73322;DHT22;61549;37.044;22.128;2023-03-23T09:27:03;21.90;43.30
73322;DHT22;61549;37.044;22.128;2023-03-23T09:29:30;21.90;39.70
73322;DHT22;61549;37.044;22.128;2023-03-23T09:31:56;21.90;42.30
73322;DHT22;61549;37.044;22.128;2023-03-23T09:34:21;22.10;42.60
73322;DHT22;61549;37.044;22.128;2023-03-23T09:36:48;22.30;40.90
73322;DHT22;61549;37.044;22.128;2023-03-23T09:39:15;22.30;41.70
73322;DHT22;61549;37.044;22.128;2023-03-23T09:41:57;22.40;41.20
73322;DHT22;61549;37.044;22.128;2023-03-23T09:44:56;22.50;42.30
73322;DHT22;61549;37.044;22.128;2023-03-23T09:50:20;22.60;44.00
73322;DHT22;61549;37.044;22.128;2023-03-23T09:52:59;22.60;44.60
73322;DHT22;61549;37.044;22.128;2023-03-23T09:55:26;22.60;44.60
73322;DHT22;61549;37.044;22.128;2023-03-23T10:00:29;22.70;41.00
73322;DHT22;61549;37.044;22.128;2023-03-23T10:05:37;23.00;41.00
73322;DHT22;61549;37.044;22.128;2023-03-23T10:08:34;23.00;40.10
73322;DHT22;61549;37.044;22.128;2023-03-23T10:16:13;22.70;37.60
73322;DHT22;61549;37.044;22.128;2023-03-23T10:19:00;22.60;37.00
73322;DHT22;61549;37.044;22.128;2023-03-23T10:21:30;22.50;37.60
73322;DHT22;61549;37.044;22.128;2023-03-23T10:24:02;22.30;38.80
73322;DHT22;61549;37.044;22.128;2023-03-23T10:26:48;22.30;39.40
73322;DHT22;61549;37.044;22.128;2023-03-23T10:29:29;22.20;37.80
73322;DHT22;61549;37.044;22.128;2023-03-23T10:32:08;22.10;37.90
73322;DHT22;61549;37.044;22.128;2023-03-23T10:34:50;22.40;38.20
73322;DHT22;61549;37.044;22.128;2023-03-23T10:37:41;22.30;37.20
73322;DHT22;61549;37.044;22.128;2023-03-23T10:40:21;22.50;38.20
73322;DHT22;61549;37.044;22.128;2023-03-23T10:43:20;22.60;37.00
73322;DHT22;61549;37.044;22.128;2023-03-23T10:45:54;22.80;37.10
73322;DHT22;61549;37.044;22.128;2023-03-23T10:48:27;22.80;37.50
73322;DHT22;61549;37.044;22.128;2023-03-23T10:50:59;22.90;37.80
73322;DHT22;61549;37.044;22.128;2023-03-23T10:53:38;22.90;36.80
73322;DHT22;61549;37.044;22.128;2023-03-23T10:56:17;22.90;37.00
73322;DHT22;61549;37.044;22.128;2023-03-23T10:58:44;22.80;37.00
73322;DHT22;61549;37.044;22.128;2023-03-23T11:01:12;22.80;37.80
73322;DHT22;61549;37.044;22.128;2023-03-23T11:03:46;22.80;38.80
73322;DHT22;61549;37.044;22.128;2023-03-23T11:06:29;22.80;38.00
73322;DHT22;61549;37.044;22.128;2023-03-23T11:08:56;22.70;38.00
73322;DHT22;61549;37.044;22.128;2023-03-23T11:11:36;22.40;37.60
73322;DHT22;61549;37.044;22.128;2023-03-23T11:14:41;22.40;36.90
73322;DHT22;61549;37.044;22.128;2023-03-23T11:17:24;22.40;37.90
73322;DHT22;61549;37.044;22.128;2023-03-23T11:19:51;22.50;38.40
73322;DHT22;61549;37.044;22.128;2023-03-23T11:22:33;22.50;38.30
73322;DHT22;61549;37.044;22.128;2023-03-23T11:25:04;22.40;37.50
73322;DHT22;61549;37.044;22.128;2023-03-23T11:27:32;22.60;38.00
73322;DHT22;61549;37.044;22.128;2023-03-23T11:30:19;22.60;38.30
73322;DHT22;61549;37.044;22.128;2023-03-23T11:32:46;22.80;37.40
73322;DHT22;61549;37.044;22.128;2023-03-23T11:35:21;22.60;38.00
73322;DHT22;61549;37.044;22.128;2023-03-23T11:37:53;22.60;39.00
73322;DHT22;61549;37.044;22.128;2023-03-23T11:40:22;22.50;37.70
73322;DHT22;61549;37.044;22.128;2023-03-23T11:45:35;22.20;37.80
73322;DHT22;61549;37.044;22.128;2023-03-23T11:48:27;22.10;39.50
73322;DHT22;61549;37.044;22.128;2023-03-23T11:51:01;21.80;38.90
73322;DHT22;61549;37.044;22.128;2023-03-23T11:56:26;21.40;40.50
73322;DHT22;61549;37.044;22.128;2023-03-23T11:58:56;21.50;41.30
73322;DHT22;61549;37.044;22.128;2023-03-23T12:24:49;21.70;43.40
73322;DHT22;61549;37.044;22.128;2023-03-23T12:41:52;21.90;48.20
73322;DHT22;61549;37.044;22.128;2023-03-23T12:44:27;21.90;47.80
73322;DHT22;61549;37.044;22.128;2023-03-23T12:47:29;21.70;48.20
73322;DHT22;61549;37.044;22.128;2023-03-23T12:50:03;21.80;47.50
73322;DHT22;61549;37.044;22.128;2023-03-23T12:52:54;21.80;47.30
73322;DHT22;61549;37.044;22.128;2023-03-23T12:55:44;21.90;46.60
73322;DHT22;61549;37.044;22.128;2023-03-23T12:58:23;21.70;46.60
73322;DHT22;61549;37.044;22.128;2023-03-23T13:01:20;21.60;47.10
73322;DHT22;61549;37.044;22.128;2023-03-23T13:06:44;21.70;45.60
73322;DHT22;61549;37.044;22.128;2023-03-23T13:12:16;21.80;44.50
73322;DHT22;61549;37.044;22.128;2023-03-23T13:17:44;21.80;44.30
73322;DHT22;61549;37.044;22.128;2023-03-23T13:25:55;21.60;45.80
73322;DHT22;61549;37.044;22.128;2023-03-23T13:28:30;21.50;45.90
73322;DHT22;61549;37.044;22.128;2023-03-23T13:33:35;21.40;45.90
73322;DHT22;61549;37.044;22.128;2023-03-23T13:36:11;21.30;45.70
73322;DHT22;61549;37.044;22.128;2023-03-23T13:38:44;21.10;46.50
73322;DHT22;61549;37.044;22.128;2023-03-23T13:41:15;21.10;46.00
73322;DHT22;61549;37.044;22.128;2023-03-23T13:43:43;21.10;46.30
73322;DHT22;61549;37.044;22.128;2023-03-23T13:46:24;21.00;46.50
73322;DHT22;61549;37.044;22.128;2023-03-23T13:59:27;21.60;46.40
73322;DHT22;61549;37.044;22.128;2023-03-23T14:01:55;21.50;46.30
73322;DHT22;61549;37.044;22.128;2023-03-23T14:04:23;21.60;46.00
73322;DHT22;61549;37.044;22.128;2023-03-23T14:06:57;21.60;44.60
73322;DHT22;61549;37.044;22.128;2023-03-23T14:09:30;21.50;45.10
73322;DHT22;61549;37.044;22.128;2023-03-23T14:12:01;21.60;45.60
73322;DHT22;61549;37.044;22.128;2023-03-23T14:14:40;21.70;45.30
73322;DHT22;61549;37.044;22.128;2023-03-23T14:17:28;21.70;45.80
73322;DHT22;61549;37.044;22.128;2023-03-23T14:19:56;21.70;45.50
73322;DHT22;61549;37.044;22.128;2023-03-23T14:22:32;21.80;45.60
73322;DHT22;61549;37.044;22.128;2023-03-23T14:27:37;21.80;46.50
73322;DHT22;61549;37.044;22.128;2023-03-23T14:30:06;21.60;45.70
73322;DHT22;61549;37.044;22.128;2023-03-23T14:32:33;21.70;46.80
73322;DHT22;61549;37.044;22.128;2023-03-23T14:35:05;21.80;44.80
73322;DHT22;61549;37.044;22.128;2023-03-23T14:37:33;21.80;44.90
73322;DHT22;61549;37.044;22.128;2023-03-23T14:40:01;21.90;44.70
73322;DHT22;61549;37.044;22.128;2023-03-23T14:42:46;21.90;44.40
73322;DHT22;61549;37.044;22.128;2023-03-23T14:45:17;21.90;44.50
73322;DHT22;61549;37.044;22.128;2023-03-23T14:48:02;21.60;45.00
73322;DHT22;61549;37.044;22.128;2023-03-23T14:50:48;21.50;45.70
73322;DHT22;61549;37.044;22.128;2023-03-23T14:53:29;21.40;45.60
73322;DHT22;61549;37.044;22.128;2023-03-23T14:56:08;21.50;46.30
73322;DHT22;61549;37.044;22.128;2023-03-23T14:58:34;21.40;46.60
73322;DHT22;61549;37.044;22.128;2023-03-23T15:03:28;21.50;46.90
73322;DHT22;61549;37.044;22.128;2023-03-23T15:05:59;21.50;46.70
73322;DHT22;61549;37.044;22.128;2023-03-23T15:08:32;21.50;46.40
73322;DHT22;61549;37.044;22.128;2023-03-23T15:13:30;21.40;46.50
73322;DHT22;61549;37.044;22.128;2023-03-23T15:16:14;21.50;47.30
73322;DHT22;61549;37.044;22.128;2023-03-23T15:18:44;21.50;46.80
73322;DHT22;61549;37.044;22.128;2023-03-23T15:21:24;21.50;47.60
73322;DHT22;61549;37.044;22.128;2023-03-23T15:23:51;21.50;48.00
73322;DHT22;61549;37.044;22.128;2023-03-23T15:26:30;21.50;48.60
73322;DHT22;61549;37.044;22.128;2023-03-23T15:29:12;21.50;49.10
73322;DHT22;61549;37.044;22.128;2023-03-23T15:31:55;21.50;48.10
73322;DHT22;61549;37.044;22.128;2023-03-23T15:34:39;21.50;47.10
73322;DHT22;61549;37.044;22.128;2023-03-23T15:39:48;21.40;48.00
73322;DHT22;61549;37.044;22.128;2023-03-23T15:42:31;21.30;48.40
73322;DHT22;61549;37.044;22.128;2023-03-23T15:45:12;21.40;49.00
73322;DHT22;61549;37.044;22.128;2023-03-23T15:47:48;21.40;49.50
73322;DHT22;61549;37.044;22.128;2023-03-23T15:52:58;21.40;50.80
73322;DHT22;61549;37.044;22.128;2023-03-23T15:55:27;21.50;51.50
73322;DHT22;61549;37.044;22.128;2023-03-23T15:58:11;21.40;51.30
73322;DHT22;61549;37.044;22.128;2023-03-23T16:00:38;21.40;51.50
73322;DHT22;61549;37.044;22.128;2023-03-23T16:03:07;21.40;52.40
73322;DHT22;61549;37.044;22.128;2023-03-23T16:05:34;21.40;52.60
73322;DHT22;61549;37.044;22.128;2023-03-23T16:08:00;21.40;52.90
73322;DHT22;61549;37.044;22.128;2023-03-23T16:10:30;21.40;53.30
73322;DHT22;61549;37.044;22.128;2023-03-23T16:12:56;21.40;53.50
73322;DHT22;61549;37.044;22.128;2023-03-23T16:15:22;21.30;53.40
73322;DHT22;61549;37.044;22.128;2023-03-23T16:17:48;21.30;53.70
73322;DHT22;61549;37.044;22.128;2023-03-23T16:20:16;21.20;53.60
73322;DHT22;61549;37.044;22.128;2023-03-23T16:22:44;21.20;53.50
73322;DHT22;61549;37.044;22.128;2023-03-23T16:25:14;21.20;53.00
73322;DHT22;61549;37.044;22.128;2023-03-23T16:27:41;21.20;52.40
73322;DHT22;61549;37.044;22.128;2023-03-23T16:30:22;21.10;52.40
73322;DHT22;61549;37.044;22.128;2023-03-23T16:32:48;21.20;51.60
73322;DHT22;61549;37.044;22.128;2023-03-23T16:35:15;21.10;51.40
73322;DHT22;61549;37.044;22.128;2023-03-23T16:37:51;21.10;51.70
73322;DHT22;61549;37.044;22.128;2023-03-23T16:40:17;21.00;51.70
73322;DHT22;61549;37.044;22.128;2023-03-23T16:42:43;20.90;52.00
73322;DHT22;61549;37.044;22.128;2023-03-23T16:45:11;20.90;52.90
73322;DHT22;61549;37.044;22.128;2023-03-23T16:47:39;20.80;52.30
73322;DHT22;61549;37.044;22.128;2023-03-23T16:50:08;20.60;52.20
73322;DHT22;61549;37.044;22.128;2023-03-23T16:52:38;20.40;53.40
73322;DHT22;61549;37.044;22.128;2023-03-23T16:55:05;20.40;53.20
73322;DHT22;61549;37.044;22.128;2023-03-23T16:57:33;20.40;52.80
73322;DHT22;61549;37.044;22.128;2023-03-23T17:00:11;20.40;53.00
73322;DHT22;61549;37.044;22.128;2023-03-23T17:02:42;20.40;52.50
73322;DHT22;61549;37.044;22.128;2023-03-23T17:05:09;20.40;52.90
73322;DHT22;61549;37.044;22.128;2023-03-23T17:07:38;20.40;53.20
73322;DHT22;61549;37.044;22.128;2023-03-23T17:10:06;20.40;53.40
73322;DHT22;61549;37.044;22.128;2023-03-23T17:12:33;20.40;53.60
73322;DHT22;61549;37.044;22.128;2023-03-23T17:14:59;20.40;53.90
73322;DHT22;61549;37.044;22.128;2023-03-23T17:17:25;20.40;53.80
73322;DHT22;61549;37.044;22.128;2023-03-23T17:19:51;20.30;53.70
73322;DHT22;61549;37.044;22.128;2023-03-23T17:22:18;20.30;54.20
73322;DHT22;61549;37.044;22.128;2023-03-23T17:24:46;20.30;54.80
73322;DHT22;61549;37.044;22.128;2023-03-23T17:27:17;20.30;54.90
73322;DHT22;61549;37.044;22.128;2023-03-23T17:29:44;20.20;54.60
73322;DHT22;61549;37.044;22.128;2023-03-23T17:32:11;20.20;54.80
73322;DHT22;61549;37.044;22.128;2023-03-23T17:34:37;20.10;55.10
73322;DHT22;61549;37.044;22.128;2023-03-23T17:37:04;20.00;54.90
73322;DHT22;61549;37.044;22.128;2023-03-23T17:39:31;19.90;54.90
73322;DHT22;61549;37.044;22.128;2023-03-23T17:41:58;19.90;54.80
73322;DHT22;61549;37.044;22.128;2023-03-23T17:44:24;19.80;54.90
73322;DHT22;61549;37.044;22.128;2023-03-23T17:46:51;19.80;54.60